Time;durP1;ratioP1;P1;durP2;ratioP2;P2;SDS_P1;SDS_P2;PMS_P1;PMS_P2;Temp;Humidity;BMP_temperature;BMP_pressure;BME280_temperature;BME280_humidity;BME280_pressure;Samples;Min_cycle;Max_cycle;Signal;HPM_P1;HPM_P2
2022/09/05 00:00:09;;;;;;;13.80;6.38;;;;;;;17.89;66.99;101792.47;5062051;28;20024;-56
2022/09/05 00:03:01;;;;;;;12.63;6.22;;;;;;;17.96;66.61;101792.56;5076509;28;20407;-58
2022/09/05 00:05:52;;;;;;;9.93;6.13;;;;;;;17.84;67.12;101790.38;5082750;28;20028;-58
2022/09/05 00:08:38;;;;;;;9.85;6.10;;;;;;;17.86;66.92;101782.94;5082048;28;20055;-59
2022/09/05 00:11:23;;;;;;;10.90;5.97;;;;;;;17.85;66.69;101786.66;5082640;28;20079;-59
2022/09/05 00:14:12;;;;;;;11.40;6.50;;;;;;;17.87;66.40;101784.59;5076519;28;20024;-58
2022/09/05 00:16:40;;;;;;;10.35;6.18;;;;;;;17.79;67.11;101786.56;5061907;28;20070;-58
2022/09/05 00:19:31;;;;;;;10.55;6.40;;;;;;;17.84;66.31;101789.53;5061981;28;20035;-57
2022/09/05 00:22:04;;;;;;;12.70;6.20;;;;;;;17.75;66.71;101792.31;5061976;28;20031;-58
2022/09/05 00:24:58;;;;;;;15.60;6.30;;;;;;;17.81;66.25;101796.09;5061747;28;20039;-57
2022/09/05 00:27:23;;;;;;;11.00;6.20;;;;;;;17.77;66.65;101788.59;5061497;28;20036;-56
2022/09/05 00:29:51;;;;;;;10.35;6.40;;;;;;;17.73;66.69;101785.47;5061539;28;20040;-57
2022/09/05 00:32:51;;;;;;;10.40;6.43;;;;;;;17.77;65.96;101786.78;5061120;28;20407;-57
2022/09/05 00:35:28;;;;;;;14.30;7.00;;;;;;;17.65;66.42;101786.38;5063221;28;20057;-59
2022/09/05 00:37:55;;;;;;;13.50;6.90;;;;;;;17.64;66.34;101786.56;5081729;28;20031;-58
2022/09/05 00:40:36;;;;;;;10.68;6.45;;;;;;;17.70;66.13;101785.81;5081576;28;20028;-57
2022/09/05 00:43:06;;;;;;;11.48;6.82;;;;;;;17.54;67.07;101782.34;5077473;28;20530;-59
2022/09/05 00:45:57;;;;;;;10.68;6.93;;;;;;;17.59;66.75;101782.63;5061289;28;20047;-58
2022/09/05 00:48:32;;;;;;;12.77;7.20;;;;;;;17.61;65.95;101780.56;5045355;28;20040;-57
2022/09/05 00:51:22;;;;;;;11.43;7.40;;;;;;;17.52;67.09;101775.50;5061701;28;20021;-57
2022/09/05 00:54:09;;;;;;;13.32;7.22;;;;;;;17.56;66.29;101780.28;5068343;28;20610;-57
2022/09/05 00:57:01;;;;;;;12.07;7.30;;;;;;;17.58;65.90;101772.88;5081176;28;20472;-57
2022/09/05 00:59:45;;;;;;;11.77;7.30;;;;;;;17.52;66.75;101776.31;5076166;28;20032;-59
2022/09/05 01:02:23;;;;;;;14.77;7.70;;;;;;;17.45;67.07;101775.38;5061190;28;20082;-57
2022/09/05 01:05:26;;;;;;;9.52;7.50;;;;;;;17.52;66.23;101780.84;5061002;28;20035;-58
2022/09/05 01:08:20;;;;;;;13.05;7.65;;;;;;;17.46;66.09;101769.00;5060629;28;20493;-57
2022/09/05 01:11:09;;;;;;;9.48;7.28;;;;;;;17.43;66.57;101774.75;5060751;28;20032;-59
2022/09/05 01:13:46;;;;;;;13.45;7.50;;;;;;;17.44;66.47;101779.09;5060927;28;20484;-57
2022/09/05 01:16:27;;;;;;;12.48;7.35;;;;;;;17.40;66.56;101772.41;5062174;28;20059;-56
2022/09/05 01:19:09;;;;;;;12.10;7.50;;;;;;;17.33;66.77;101772.34;5060666;28;20032;-58
2022/09/05 01:21:57;;;;;;;12.15;7.38;;;;;;;17.33;66.89;101773.16;5059913;28;20032;-59
2022/09/05 01:24:36;;;;;;;13.20;7.70;;;;;;;17.29;67.35;101771.88;5060699;28;20062;-58
2022/09/05 01:27:29;;;;;;;10.73;7.40;;;;;;;17.31;66.28;101780.56;5060368;28;20115;-56
2022/09/05 01:30:10;;;;;;;15.57;7.60;;;;;;;17.29;67.02;101777.25;5073718;28;20034;-59
2022/09/05 01:32:50;;;;;;;12.27;7.50;;;;;;;17.24;67.01;101776.94;5080681;28;20028;-57
2022/09/05 01:35:51;;;;;;;11.45;7.25;;;;;;;17.27;66.79;101773.88;5065017;28;20033;-58
2022/09/05 01:38:31;;;;;;;11.55;7.53;;;;;;;17.17;67.92;101781.38;5049505;28;20055;-57
2022/09/05 01:41:20;;;;;;;10.13;7.40;;;;;;;17.24;66.81;101779.63;5068733;28;20043;-58
2022/09/05 01:44:15;;;;;;;12.85;7.22;;;;;;;17.17;66.88;101778.72;5071941;28;20033;-57
2022/09/05 01:47:13;;;;;;;13.82;7.80;;;;;;;17.16;67.23;101772.50;5060083;28;20032;-59
2022/09/05 01:50:20;;;;;;;11.35;6.93;;;;;;;17.15;67.17;101773.53;5027422;28;20072;-57
2022/09/05 01:53:01;;;;;;;11.63;7.13;;;;;;;17.14;67.08;101771.00;5059535;28;20044;-59
2022/09/05 01:56:08;;;;;;;11.98;7.45;;;;;;;17.09;67.23;101776.94;5067863;28;20036;-57
2022/09/05 01:58:42;;;;;;;11.68;7.35;;;;;;;17.04;67.68;101771.28;5039634;28;20109;-57
2022/09/05 02:01:34;;;;;;;11.20;7.65;;;;;;;17.00;67.85;101775.28;5070685;28;20040;-57
2022/09/05 02:04:46;;;;;;;14.35;7.75;;;;;;;17.01;67.60;101779.63;5074121;28;20043;-58
2022/09/05 02:07:32;;;;;;;11.50;6.95;;;;;;;16.98;67.70;101774.66;5079268;28;20035;-57
2022/09/05 02:10:46;;;;;;;10.38;7.78;;;;;;;16.96;68.00;101777.50;5080206;28;20028;-57
2022/09/05 02:13:18;;;;;;;11.85;7.78;;;;;;;16.90;67.71;101772.88;4991011;28;20038;-58
2022/09/05 02:15:48;;;;;;;11.88;7.25;;;;;;;16.90;68.29;101772.88;5046533;28;20636;-58
2022/09/05 02:18:20;;;;;;;12.45;7.60;;;;;;;16.85;68.54;101770.75;5059919;28;20032;-57
2022/09/05 02:21:00;;;;;;;11.73;7.70;;;;;;;16.83;68.42;101769.25;5059807;28;20039;-59
2022/09/05 02:24:08;;;;;;;10.50;8.13;;;;;;;16.85;68.63;101780.63;5059679;28;20111;-57
2022/09/05 02:27:07;;;;;;;14.95;7.85;;;;;;;16.85;68.39;101785.97;5059371;28;20044;-59
2022/09/05 02:30:00;;;;;;;10.38;7.80;;;;;;;16.78;68.67;101780.53;5080154;28;20036;-58
2022/09/05 02:32:40;;;;;;;9.23;7.53;;;;;;;16.78;68.45;101786.69;5081425;28;20032;-59
2022/09/05 02:35:09;;;;;;;13.40;7.95;;;;;;;16.71;69.52;101785.75;5066901;28;20083;-59
2022/09/05 02:37:40;;;;;;;15.00;8.73;;;;;;;16.73;68.88;101783.72;5084021;28;20032;-57
2022/09/05 02:40:27;;;;;;;13.30;7.80;;;;;;;16.78;68.26;101781.34;5083496;28;20038;-58
2022/09/05 02:43:31;;;;;;;16.15;8.55;;;;;;;16.80;67.87;101784.69;5084156;28;20082;-57
2022/09/05 02:46:25;;;;;;;12.70;8.32;;;;;;;16.70;69.07;101784.09;4990876;28;20072;-57
2022/09/05 02:49:09;;;;;;;13.32;8.00;;;;;;;16.69;68.86;101787.78;5060686;28;20063;-58
2022/09/05 02:51:42;;;;;;;12.00;8.30;;;;;;;16.61;69.58;101785.16;5063440;28;20032;-57
2022/09/05 02:54:15;;;;;;;16.70;8.10;;;;;;;16.52;70.21;101784.38;5063295;28;20040;-57
2022/09/05 02:56:50;;;;;;;16.65;8.05;;;;;;;16.56;69.93;101787.53;5066626;28;20032;-57
2022/09/05 02:59:30;;;;;;;20.05;8.05;;;;;;;16.61;69.13;101779.78;5083358;28;20099;-59
2022/09/05 03:02:33;;;;;;;17.30;8.27;;;;;;;16.58;69.08;101785.53;5083830;28;20050;-56
2022/09/05 03:05:15;;;;;;;16.45;8.23;;;;;;;16.56;69.81;101782.16;5082944;28;20038;-58
2022/09/05 03:08:20;;;;;;;14.95;8.65;;;;;;;16.49;69.40;101784.75;5083313;28;20338;-58
2022/09/05 03:10:54;;;;;;;14.35;8.93;;;;;;;16.46;69.79;101793.13;5078606;28;20028;-57
2022/09/05 03:14:08;;;;;;;15.68;8.48;;;;;;;16.48;69.13;101791.13;5077147;28;20047;-58
2022/09/05 03:16:37;;;;;;;11.23;9.05;;;;;;;16.38;70.12;101788.69;5072434;28;20040;-57
2022/09/05 03:19:20;;;;;;;13.82;8.60;;;;;;;16.43;70.14;101788.94;5083217;28;20646;-57
2022/09/05 03:22:23;;;;;;;13.80;8.70;;;;;;;16.41;69.94;101785.63;5062843;28;20041;-57
2022/09/05 03:25:16;;;;;;;14.65;8.60;;;;;;;16.32;70.86;101784.84;5072742;28;20034;-57
2022/09/05 03:28:02;;;;;;;12.45;8.45;;;;;;;16.32;70.93;101781.34;5083044;28;20062;-57
2022/09/05 03:30:50;;;;;;;14.00;8.68;;;;;;;16.31;70.19;101777.81;5080939;28;20146;-57
2022/09/05 03:33:35;;;;;;;12.80;8.60;;;;;;;16.27;71.07;101774.69;5052785;28;20044;-57
2022/09/05 03:36:35;;;;;;;14.40;8.65;;;;;;;16.29;70.64;101781.69;5062420;28;20178;-58
2022/09/05 03:39:18;;;;;;;14.90;8.63;;;;;;;16.23;71.44;101781.38;5082307;28;20059;-56
2022/09/05 03:42:10;;;;;;;15.15;9.15;;;;;;;16.32;70.92;101786.69;5082631;28;20048;-57
2022/09/05 03:44:55;;;;;;;14.52;8.77;;;;;;;16.26;71.05;101783.72;5081875;28;20487;-57
2022/09/05 03:47:55;;;;;;;13.13;8.57;;;;;;;16.24;71.45;101783.03;5082773;28;20119;-57
2022/09/05 03:50:59;;;;;;;15.48;9.43;;;;;;;16.21;71.84;101783.41;5071354;28;20043;-57
2022/09/05 03:53:41;;;;;;;18.05;9.07;;;;;;;16.14;72.00;101779.78;4997099;28;20042;-57
2022/09/05 03:56:52;;;;;;;13.52;8.50;;;;;;;16.14;71.98;101777.09;5000608;28;20030;-57
2022/09/05 03:59:30;;;;;;;14.10;9.35;;;;;;;15.89;72.79;101766.47;5023599;28;20041;-56
2022/09/05 04:02:03;;;;;;;11.55;8.57;;;;;;;15.95;72.76;101781.03;5061370;28;20040;-57
2022/09/05 04:04:32;;;;;;;14.00;8.68;;;;;;;15.93;72.86;101778.53;5073964;28;20434;-57
2022/09/05 04:07:15;;;;;;;16.65;8.82;;;;;;;15.94;72.81;101774.84;5059767;28;20515;-57
2022/09/05 04:10:25;;;;;;;13.30;8.63;;;;;;;16.02;71.91;101781.19;5081872;28;20027;-57
2022/09/05 04:12:58;;;;;;;13.07;9.02;;;;;;;15.96;72.74;101785.38;5038934;28;20541;-56
2022/09/05 04:16:05;;;;;;;14.48;9.10;;;;;;;15.97;72.26;101785.19;5061968;28;20475;-56
2022/09/05 04:18:41;;;;;;;14.73;8.65;;;;;;;15.92;72.58;101782.22;5059528;28;20463;-57
2022/09/05 04:21:20;;;;;;;13.68;8.98;;;;;;;15.89;72.45;101793.22;5061832;28;20083;-57
2022/09/05 04:23:59;;;;;;;15.43;9.18;;;;;;;15.94;72.55;101785.53;5062228;28;20115;-59
2022/09/05 04:26:53;;;;;;;14.05;9.38;;;;;;;15.91;72.72;101780.53;5061686;28;20047;-58
2022/09/05 04:29:25;;;;;;;13.23;9.23;;;;;;;15.81;73.54;101777.22;5072746;28;20419;-57
2022/09/05 04:32:05;;;;;;;15.73;9.73;;;;;;;15.74;73.96;101785.94;5061487;28;20039;-57
2022/09/05 04:35:02;;;;;;;12.77;9.90;;;;;;;15.76;73.22;101782.22;5064454;28;20046;-57
2022/09/05 04:37:50;;;;;;;16.92;9.65;;;;;;;15.79;73.55;101781.91;5081834;28;20028;-58
2022/09/05 04:40:38;;;;;;;16.10;10.20;;;;;;;15.81;73.25;101785.22;5081795;28;20028;-59
2022/09/05 04:43:13;;;;;;;13.30;9.50;;;;;;;15.67;74.05;101784.94;5081612;28;20071;-57
2022/09/05 04:45:44;;;;;;;17.02;10.05;;;;;;;15.73;73.84;101783.41;5081488;28;20020;-58
2022/09/05 04:48:14;;;;;;;16.30;9.73;;;;;;;15.67;74.20;101784.94;5064891;28;20548;-57
2022/09/05 04:51:01;;;;;;;14.52;9.75;;;;;;;15.72;73.18;101790.63;5061355;28;20028;-57
2022/09/05 04:53:40;;;;;;;17.48;10.80;;;;;;;15.61;74.35;101791.00;5061205;28;20386;-57
2022/09/05 04:56:13;;;;;;;16.00;10.27;;;;;;;15.63;74.17;101802.34;5060813;28;20047;-57
2022/09/05 04:58:47;;;;;;;16.63;10.25;;;;;;;15.59;74.46;101806.34;5068872;28;20048;-57
2022/09/05 05:01:22;;;;;;;16.95;10.00;;;;;;;15.58;73.66;101802.00;5069075;28;20040;-57
2022/09/05 05:03:48;;;;;;;20.83;10.73;;;;;;;15.45;74.43;101794.53;5061282;28;20025;-57
2022/09/05 05:06:31;;;;;;;18.70;10.20;;;;;;;15.51;74.21;101807.22;5060492;28;20723;-57
2022/09/05 05:09:01;;;;;;;;;;;;;;;15.69;71.99;101807.00;5061406;28;20032;-58
2022/09/05 05:11:44;;;;;;;15.95;9.90;;;;;;;15.53;74.18;101805.19;5060603;28;19916;-58
2022/09/05 05:14:19;;;;;;;20.10;10.10;;;;;;;15.50;74.53;101805.56;5073846;28;20086;-57
2022/09/05 05:16:57;;;;;;;19.75;10.35;;;;;;;15.49;74.48;101808.41;5066274;28;20102;-58
2022/09/05 05:19:50;;;;;;;18.92;10.00;;;;;;;15.57;73.44;101805.69;5060333;28;20155;-56
2022/09/05 05:22:16;;;;;;;20.60;10.15;;;;;;;15.55;74.01;101810.38;5060652;28;20033;-56
2022/09/05 05:24:46;;;;;;;19.52;10.38;;;;;;;15.54;73.81;101811.41;5060441;28;20107;-55
2022/09/05 05:27:14;;;;;;;22.10;10.65;;;;;;;15.55;74.47;101815.72;5060108;28;20047;-57
2022/09/05 05:29:47;;;;;;;17.38;10.07;;;;;;;15.54;74.50;101816.75;5060888;28;20036;-57
2022/09/05 05:32:27;;;;;;;15.25;9.82;;;;;;;15.60;74.04;101816.88;5060440;28;20410;-57
2022/09/05 05:35:02;;;;;;;16.77;9.93;;;;;;;15.60;73.79;101813.38;5064060;28;20036;-58
2022/09/05 05:37:30;;;;;;;18.13;10.52;;;;;;;15.64;74.01;101812.00;5068950;28;20411;-56
2022/09/05 05:40:09;;;;;;;16.02;9.90;;;;;;;15.63;73.96;101815.69;5080693;28;20069;-56
2022/09/05 05:42:38;;;;;;;16.77;10.35;;;;;;;15.63;74.37;101810.34;5080132;28;20415;-57
2022/09/05 05:45:26;;;;;;;16.40;10.25;;;;;;;15.70;74.45;101805.97;5080359;28;20066;-58
2022/09/05 05:47:58;;;;;;;15.98;9.52;;;;;;;15.71;74.67;101806.81;5079675;28;20499;-57
2022/09/05 05:50:36;;;;;;;18.02;10.73;;;;;;;15.73;74.83;101816.34;5080563;28;20027;-59
2022/09/05 05:53:27;;;;;;;21.30;11.57;;;;;;;15.86;74.07;101814.97;5079328;28;20043;-57
2022/09/05 05:56:23;;;;;;;14.88;10.77;;;;;;;15.87;74.39;101821.97;5080203;28;20485;-57
2022/09/05 05:59:17;;;;;;;20.17;11.43;;;;;;;15.93;74.47;101821.31;5080350;28;20042;-56
2022/09/05 06:02:00;;;;;;;22.13;11.57;;;;;;;16.00;74.01;101819.63;5080207;28;20544;-56
2022/09/05 06:04:44;;;;;;;16.73;11.73;;;;;;;16.08;73.91;101823.28;5080554;28;20039;-56
2022/09/05 06:07:29;;;;;;;16.02;11.27;;;;;;;16.09;74.62;101827.63;5067183;28;20097;-58
2022/09/05 06:10:25;;;;;;;22.75;11.52;;;;;;;16.16;74.37;101830.41;5060287;28;20051;-56
2022/09/05 06:13:11;;;;;;;20.17;11.85;;;;;;;16.20;74.20;101837.94;5059898;28;20230;-56
2022/09/05 06:16:10;;;;;;;21.52;12.05;;;;;;;16.24;73.87;101838.44;5060284;28;20033;-56
2022/09/05 06:19:16;;;;;;;22.30;11.90;;;;;;;16.32;73.78;101842.91;5059869;28;20486;-56
2022/09/05 06:21:57;;;;;;;20.45;12.15;;;;;;;16.40;73.46;101848.22;5059809;28;20567;-56
2022/09/05 06:25:00;;;;;;;19.05;11.77;;;;;;;16.51;73.01;101850.50;5063853;28;20017;-55
2022/09/05 06:27:34;;;;;;;22.83;12.50;;;;;;;16.60;72.81;101837.88;5060513;28;20044;-57
2022/09/05 06:30:09;;;;;;;20.08;12.35;;;;;;;16.71;72.88;101844.66;5059912;28;20040;-56
2022/09/05 06:32:55;;;;;;;19.25;12.00;;;;;;;16.79;73.08;101839.25;5059820;28;20337;-56
2022/09/05 06:35:43;;;;;;;18.40;11.55;;;;;;;16.87;72.32;101842.91;5062278;28;20569;-56
2022/09/05 06:38:27;;;;;;;18.20;12.05;;;;;;;16.98;72.56;101842.47;5079946;28;20035;-56
2022/09/05 06:41:20;;;;;;;17.63;11.18;;;;;;;17.12;71.44;101843.53;5080288;28;20055;-56
2022/09/05 06:44:03;;;;;;;15.77;11.48;;;;;;;17.21;72.01;101844.31;5079823;28;20512;-57
2022/09/05 06:46:34;;;;;;;19.85;11.13;;;;;;;17.33;71.72;101842.84;5076930;28;20039;-56
2022/09/05 06:49:14;;;;;;;19.23;10.63;;;;;;;17.43;71.58;101836.41;5079898;28;20024;-56
2022/09/05 06:52:18;;;;;;;18.17;10.77;;;;;;;17.56;71.19;101841.97;5041860;28;20411;-57
2022/09/05 06:55:20;;;;;;;17.83;10.90;;;;;;;17.68;70.71;101837.00;5059328;28;20043;-56
2022/09/05 06:58:22;;;;;;;15.45;10.05;;;;;;;17.79;71.17;101840.22;5021823;28;20044;-56
2022/09/05 07:00:50;;;;;;;16.48;9.75;;;;;;;17.88;70.89;101834.56;5059490;28;20035;-58
2022/09/05 07:03:21;;;;;;;17.30;9.38;;;;;;;17.98;70.59;101844.19;5059259;28;20598;-57
2022/09/05 07:05:57;;;;;;;16.27;8.80;;;;;;;18.04;69.79;101848.81;5059765;28;20040;-57
2022/09/05 07:08:34;;;;;;;12.20;8.50;;;;;;;18.10;69.74;101850.78;5066955;28;20036;-56
2022/09/05 07:11:09;;;;;;;16.30;7.70;;;;;;;18.18;68.62;101851.69;5078825;28;20043;-58
2022/09/05 07:13:46;;;;;;;12.63;7.05;;;;;;;18.28;67.20;101849.56;5078373;28;20340;-56
2022/09/05 07:16:34;;;;;;;10.07;7.22;;;;;;;18.39;67.09;101851.75;5079434;28;20438;-56
2022/09/05 07:19:23;;;;;;;15.13;7.13;;;;;;;18.46;67.91;101856.38;5076346;28;20535;-57
2022/09/05 07:22:16;;;;;;;8.27;6.80;;;;;;;18.58;66.83;101854.84;5062876;28;20393;-58
2022/09/05 07:24:45;;;;;;;15.38;6.88;;;;;;;18.72;65.29;101844.22;5052437;28;20498;-57
2022/09/05 07:27:27;;;;;;;10.30;6.30;;;;;;;18.71;65.89;101847.94;5083159;28;20085;-57
2022/09/05 07:29:56;;;;;;;11.20;6.23;;;;;;;18.75;65.69;101851.91;5083028;28;20040;-57
2022/09/05 07:32:23;;;;;;;10.00;5.70;;;;;;;18.87;64.80;101855.75;5062439;28;20027;-56
2022/09/05 07:34:50;;;;;;;9.02;5.32;;;;;;;18.98;62.66;101859.78;5062771;28;20063;-56
2022/09/05 07:37:21;;;;;;;9.27;5.53;;;;;;;19.14;61.92;101864.06;5081232;28;20039;-57
2022/09/05 07:39:55;;;;;;;7.78;5.20;;;;;;;19.24;61.89;101865.63;5080988;28;20032;-58
2022/09/05 07:42:36;;;;;;;8.73;5.22;;;;;;;19.29;61.97;101860.50;5082370;28;20044;-56
2022/09/05 07:45:10;;;;;;;12.10;5.15;;;;;;;19.36;61.33;101866.75;5082978;28;20042;-55
2022/09/05 07:47:43;;;;;;;8.05;4.70;;;;;;;19.54;60.02;101860.03;5082652;28;20415;-58
2022/09/05 07:50:11;;;;;;;8.07;4.72;;;;;;;19.59;60.16;101871.84;5082226;28;20088;-58
2022/09/05 07:52:41;;;;;;;8.07;4.13;;;;;;;19.73;59.16;101861.19;5062711;28;20828;-57
2022/09/05 07:55:34;;;;;;;5.68;4.00;;;;;;;19.91;59.04;101866.06;5062335;28;20583;-56
2022/09/05 07:58:06;;;;;;;;;;;;;;;19.93;60.82;101869.38;5062889;28;20410;-57
2022/09/05 08:00:33;;;;;;;14.70;4.37;;;;;;;20.09;59.00;101873.59;5064506;28;19916;-56
2022/09/05 08:03:10;;;;;;;9.82;4.40;;;;;;;20.20;58.03;101872.22;5062034;28;20037;-55
2022/09/05 08:05:43;;;;;;;12.77;4.40;;;;;;;20.36;57.15;101872.88;5061976;28;20400;-57
2022/09/05 08:08:12;;;;;;;9.27;3.90;;;;;;;20.38;57.58;101878.94;5062288;28;20106;-57
2022/09/05 08:10:48;;;;;;;13.23;3.70;;;;;;;20.50;57.34;101866.53;5062136;28;20078;-57
2022/09/05 08:13:25;;;;;;;7.78;3.30;;;;;;;20.64;56.46;101866.56;5062203;28;20064;-57
2022/09/05 08:15:54;;;;;;;8.57;3.53;;;;;;;20.73;56.22;101851.88;5064003;28;20127;-57
2022/09/05 08:18:40;;;;;;;10.70;3.80;;;;;;;20.82;56.15;101858.72;5062006;28;20033;-56
2022/09/05 08:21:10;;;;;;;11.30;3.72;;;;;;;21.02;53.98;101862.50;5068219;28;20556;-57
2022/09/05 08:24:00;;;;;;;7.10;3.30;;;;;;;21.08;56.01;101867.88;5082287;28;20039;-56
2022/09/05 08:26:47;;;;;;;8.57;3.55;;;;;;;21.19;55.97;101868.28;5082080;28;20031;-57
2022/09/05 08:29:29;;;;;;;6.55;3.30;;;;;;;21.33;54.51;101872.66;5081941;28;20032;-57
2022/09/05 08:32:08;;;;;;;7.97;3.40;;;;;;;21.37;54.59;101865.78;5082052;28;20036;-56
2022/09/05 08:34:47;;;;;;;6.82;3.20;;;;;;;21.54;52.88;101873.47;5069528;28;20033;-56
2022/09/05 08:37:19;;;;;;;6.05;3.33;;;;;;;21.64;53.51;101876.56;5079602;28;20399;-58
2022/09/05 08:39:47;;;;;;;5.65;3.10;;;;;;;21.68;52.64;101876.13;5079863;28;20028;-57
2022/09/05 08:42:43;;;;;;;9.13;3.20;;;;;;;21.74;52.63;101875.31;5081223;28;20056;-57
2022/09/05 08:45:25;;;;;;;7.40;3.00;;;;;;;21.81;52.57;101873.41;5081919;28;20020;-56
2022/09/05 08:48:27;;;;;;;7.50;3.38;;;;;;;21.84;52.99;101870.31;5081697;28;20064;-58
2022/09/05 08:51:14;;;;;;;7.07;3.13;;;;;;;22.10;52.20;101862.34;5081530;28;20043;-56
2022/09/05 08:54:13;;;;;;;8.38;3.38;;;;;;;22.20;51.47;101857.28;5081332;28;20028;-58
2022/09/05 08:56:54;;;;;;;5.13;3.00;;;;;;;22.42;50.95;101860.53;5060869;28;20105;-57
2022/09/05 08:59:28;;;;;;;6.07;3.10;;;;;;;22.58;48.99;101858.38;5061650;28;20048;-56
2022/09/05 09:01:53;;;;;;;10.85;3.15;;;;;;;22.71;49.17;101850.16;5068417;28;20035;-57
2022/09/05 09:04:31;;;;;;;11.32;3.60;;;;;;;22.78;49.42;101857.41;5081469;28;20025;-57
2022/09/05 09:07:19;;;;;;;6.25;3.00;;;;;;;23.05;48.09;101852.59;5081292;28;20624;-56
2022/09/05 09:10:07;;;;;;;6.20;2.97;;;;;;;23.00;49.12;101849.75;5069315;28;20067;-57
2022/09/05 09:12:47;;;;;;;9.32;3.20;;;;;;;23.17;48.50;101851.88;5060855;28;20039;-58
2022/09/05 09:15:23;;;;;;;7.72;3.55;;;;;;;23.22;47.61;101849.34;5060284;28;20193;-59
2022/09/05 09:17:50;;;;;;;5.28;3.10;;;;;;;23.27;47.19;101848.72;5060703;28;20035;-57
2022/09/05 09:20:29;;;;;;;4.88;2.80;;;;;;;23.31;46.67;101855.34;5060943;28;20169;-56
2022/09/05 09:23:13;;;;;;;8.00;2.90;;;;;;;23.34;46.84;101838.66;5068237;28;20036;-56
2022/09/05 09:26:02;;;;;;;9.70;3.25;;;;;;;23.55;46.29;101847.41;5080930;28;20032;-57
2022/09/05 09:28:47;;;;;;;6.20;3.00;;;;;;;23.66;45.99;101835.81;5080777;28;20093;-57
2022/09/05 09:31:37;;;;;;;9.65;3.10;;;;;;;23.77;46.08;101836.94;5080835;28;20032;-58
2022/09/05 09:34:24;;;;;;;3.97;2.97;;;;;;;23.90;44.82;101830.56;5069512;28;20032;-59
2022/09/05 09:37:27;;;;;;;5.63;2.63;;;;;;;23.92;45.29;101836.56;5060435;28;20032;-57
2022/09/05 09:40:23;;;;;;;5.30;2.80;;;;;;;23.97;45.41;101831.28;5061623;28;20391;-56
2022/09/05 09:43:04;;;;;;;3.55;2.50;;;;;;;24.13;44.39;101827.16;5079548;28;20411;-57
2022/09/05 09:46:09;;;;;;;7.38;2.70;;;;;;;24.22;41.87;101838.50;5080325;28;20024;-56
2022/09/05 09:49:06;;;;;;;4.20;2.78;;;;;;;24.29;43.15;101827.56;5069189;28;20040;-57
2022/09/05 09:51:46;;;;;;;3.85;2.60;;;;;;;24.48;41.15;101836.50;5060128;28;20507;-57
2022/09/05 09:54:30;;;;;;;3.17;2.30;;;;;;;24.54;42.15;101823.88;5059929;28;20040;-57
2022/09/05 09:57:07;;;;;;;5.93;2.55;;;;;;;24.60;41.64;101824.84;5063034;28;20359;-58
2022/09/05 09:59:54;;;;;;;4.20;2.75;;;;;;;24.64;41.65;101831.44;5080573;28;20043;-56
2022/09/05 10:03:01;;;;;;;7.45;2.50;;;;;;;24.74;41.33;101815.44;5080082;28;20046;-58
2022/09/05 10:05:48;;;;;;;4.05;2.35;;;;;;;24.85;41.35;101820.09;5080609;28;20497;-57
2022/09/05 10:08:31;;;;;;;6.32;2.60;;;;;;;25.04;39.64;101819.97;5080084;28;20032;-57
2022/09/05 10:10:56;;;;;;;6.30;2.85;;;;;;;25.02;39.43;101821.28;5080445;28;20052;-57
2022/09/05 10:13:23;;;;;;;7.60;2.63;;;;;;;25.18;39.40;101812.44;5062528;28;20444;-56
2022/09/05 10:16:16;;;;;;;11.55;3.05;;;;;;;25.25;40.41;101809.56;5060043;28;20025;-56
2022/09/05 10:19:09;;;;;;;5.82;2.40;;;;;;;25.30;39.29;101814.31;5042298;28;20059;-58
2022/09/05 10:21:52;;;;;;;3.72;2.30;;;;;;;25.35;39.48;101812.53;5069963;28;20103;-58
2022/09/05 10:24:48;;;;;;;2.90;2.20;;;;;;;25.45;38.86;101805.69;5078183;28;20115;-57
2022/09/05 10:27:37;;;;;;;2.95;2.20;;;;;;;25.54;39.19;101798.81;5061062;28;20586;-57
2022/09/05 10:30:33;;;;;;;6.55;2.70;;;;;;;25.63;38.58;101802.84;5059833;28;20043;-58
2022/09/05 10:33:19;;;;;;;2.60;2.40;;;;;;;25.75;37.19;101801.97;5060541;28;20032;-58
2022/09/05 10:35:50;;;;;;;6.07;2.60;;;;;;;25.80;37.02;101791.19;5070888;28;20051;-57
2022/09/05 10:38:42;;;;;;;5.43;2.58;;;;;;;25.87;36.86;101786.47;5080019;28;20051;-59
2022/09/05 10:41:18;;;;;;;6.50;2.63;;;;;;;26.00;37.25;101790.75;5079962;28;20487;-58
2022/09/05 10:43:51;;;;;;;4.75;2.40;;;;;;;26.12;36.00;101785.28;5061750;28;20059;-56
2022/09/05 10:46:36;;;;;;;4.03;2.13;;;;;;;26.22;36.06;101783.81;5060233;28;20082;-58
2022/09/05 10:49:08;;;;;;;5.68;2.42;;;;;;;26.24;35.78;101782.53;5059142;28;20024;-57
2022/09/05 10:51:51;;;;;;;2.30;2.10;;;;;;;26.36;36.83;101782.47;5059898;28;20032;-57
2022/09/05 10:54:54;;;;;;;4.32;2.33;;;;;;;26.35;36.47;101783.56;5062938;28;20036;-56
2022/09/05 10:57:44;;;;;;;3.15;2.40;;;;;;;26.54;36.13;101783.31;5073329;28;20035;-57
2022/09/05 11:00:40;;;;;;;3.35;2.10;;;;;;;26.62;36.24;101773.91;5083646;28;20047;-57
2022/09/05 11:03:12;;;;;;;3.35;2.28;;;;;;;26.76;34.52;101775.22;5063311;28;20051;-57
2022/09/05 11:05:38;;;;;;;5.72;2.38;;;;;;;26.84;34.80;101776.72;5063316;28;20028;-57
2022/09/05 11:08:16;;;;;;;2.88;2.10;;;;;;;26.89;34.31;101768.59;5062905;28;20069;-57
2022/09/05 11:10:56;;;;;;;3.00;2.10;;;;;;;26.95;34.27;101756.78;5066265;28;20031;-57
2022/09/05 11:13:43;;;;;;;4.05;2.30;;;;;;;27.02;34.96;101751.13;5082908;28;20047;-57
2022/09/05 11:16:38;;;;;;;2.45;2.20;;;;;;;27.10;35.10;101753.44;5081133;28;20043;-59
2022/09/05 11:19:05;;;;;;;3.65;2.30;;;;;;;27.18;33.47;101752.16;5063292;28;20032;-58
2022/09/05 11:22:15;;;;;;;3.35;2.20;;;;;;;27.25;34.77;101760.97;5062932;28;20469;-57
2022/09/05 11:25:01;;;;;;;5.20;2.20;;;;;;;27.38;34.53;101758.97;5058874;28;20043;-59
2022/09/05 11:27:42;;;;;;;3.15;2.20;;;;;;;27.39;33.49;101744.25;5062759;28;20054;-59
2022/09/05 11:30:22;;;;;;;2.88;2.40;;;;;;;27.49;34.02;101752.53;5062927;28;20085;-57
2022/09/05 11:33:07;;;;;;;3.80;2.47;;;;;;;27.58;33.13;101746.69;5062547;28;20123;-57
2022/09/05 11:35:39;;;;;;;3.38;2.28;;;;;;;27.75;32.84;101752.88;5067077;28;20112;-59
2022/09/05 11:38:07;;;;;;;3.40;2.60;;;;;;;27.72;33.37;101750.66;5083414;28;20124;-56
2022/09/05 11:40:56;;;;;;;3.17;2.10;;;;;;;27.62;33.93;101745.09;5077806;28;20024;-58
2022/09/05 11:44:10;;;;;;;3.65;2.40;;;;;;;27.79;33.25;101743.09;5063025;28;20044;-59
2022/09/05 11:47:14;;;;;;;3.53;2.20;;;;;;;27.87;33.70;101744.53;5063076;28;20036;-57
2022/09/05 11:49:48;;;;;;;3.38;2.35;;;;;;;27.96;33.03;101747.63;5062336;28;20036;-59
2022/09/05 11:52:46;;;;;;;3.50;2.22;;;;;;;28.00;33.80;101748.75;5062275;28;20127;-57
2022/09/05 11:55:28;;;;;;;4.70;2.20;;;;;;;28.15;33.33;101749.97;5063011;28;20496;-57
2022/09/05 11:58:15;;;;;;;3.10;2.38;;;;;;;28.17;32.75;101743.19;5062787;28;20064;-56
2022/09/05 12:00:46;;;;;;;2.55;2.20;;;;;;;28.14;32.34;101749.16;5062349;28;20032;-56
2022/09/05 12:03:36;;;;;;;2.55;2.30;;;;;;;28.18;33.78;101744.81;5062229;28;20067;-57
2022/09/05 12:06:26;;;;;;;4.80;2.30;;;;;;;28.23;32.78;101746.81;5061239;28;20514;-56
2022/09/05 12:09:10;;;;;;;4.72;2.47;;;;;;;28.26;32.06;101735.38;5062175;28;20041;-57
2022/09/05 12:12:00;;;;;;;3.20;2.10;;;;;;;28.30;33.19;101730.22;5062805;28;20174;-57
2022/09/05 12:14:46;;;;;;;3.45;2.25;;;;;;;28.31;31.98;101731.88;5065031;28;20506;-57
2022/09/05 12:17:27;;;;;;;4.80;2.22;;;;;;;28.39;32.89;101719.66;5062468;28;20523;-58
2022/09/05 12:20:10;;;;;;;2.78;2.10;;;;;;;28.51;32.25;101725.75;5075343;28;20036;-57
2022/09/05 12:22:38;;;;;;;7.72;2.40;;;;;;;28.62;31.59;101714.91;5081993;28;20437;-57
2022/09/05 12:25:51;;;;;;;5.32;2.20;;;;;;;28.58;32.05;101712.72;5082050;28;20024;-57
2022/09/05 12:28:36;;;;;;;;;;;;;;;28.64;33.67;101718.19;4969033;28;20125;-57
2022/09/05 12:31:15;;;;;;;3.42;2.30;;;;;;;28.65;31.77;101719.84;4953207;28;20317;-59
2022/09/05 12:33:46;;;;;;;2.33;2.13;;;;;;;28.66;31.22;101716.03;5030500;28;20479;-59